Time;durP1;ratioP1;P1;durP2;ratioP2;P2;SDS_P1;SDS_P2;PMS_P1;PMS_P2;Temp;Humidity;BMP_temperature;BMP_pressure;BME280_temperature;BME280_humidity;BME280_pressure;Samples;Min_cycle;Max_cycle;Signal;HPM_P1;HPM_P2
2023/05/23 00:00:35;;;;;;;23.55;17.98;;;;;;;14.08;100.00;101742.50;5063557;28;20024;-60
2023/05/23 00:03:01;;;;;;;25.63;18.63;;;;;;;14.11;100.00;101750.25;5071417;28;20468;-60
2023/05/23 00:05:28;;;;;;;24.42;19.17;;;;;;;14.01;100.00;101742.91;5071002;28;20090;-60
2023/05/23 00:07:53;;;;;;;23.58;18.30;;;;;;;14.03;100.00;101747.03;5071178;28;20099;-60
2023/05/23 00:10:19;;;;;;;24.42;18.02;;;;;;;14.01;100.00;101743.75;5071025;28;20107;-61
2023/05/23 00:12:46;;;;;;;23.33;18.35;;;;;;;13.96;100.00;101738.25;5071235;28;20485;-60
2023/05/23 00:15:12;;;;;;;23.02;17.55;;;;;;;14.08;100.00;101739.72;5071101;28;20052;-57
2023/05/23 00:17:38;;;;;;;23.33;17.70;;;;;;;14.00;100.00;101744.88;5071193;28;20068;-60
2023/05/23 00:20:10;;;;;;;24.35;18.27;;;;;;;14.06;100.00;101744.75;5070868;28;20048;-60
2023/05/23 00:22:41;;;;;;;23.52;17.88;;;;;;;14.04;100.00;101750.66;5070986;28;20024;-60
2023/05/23 00:25:08;;;;;;;24.38;17.33;;;;;;;14.08;100.00;101754.44;5071184;28;20033;-61
2023/05/23 00:27:33;;;;;;;24.20;17.27;;;;;;;14.09;100.00;101756.09;5070856;28;20052;-60
2023/05/23 00:29:59;;;;;;;24.77;17.70;;;;;;;14.08;100.00;101757.22;5071189;28;20025;-61
2023/05/23 00:32:24;;;;;;;24.27;18.13;;;;;;;14.12;100.00;101755.50;5070810;28;20377;-59
2023/05/23 00:34:49;;;;;;;24.70;17.50;;;;;;;14.07;100.00;101763.09;5071298;28;20052;-60
2023/05/23 00:37:15;;;;;;;22.95;17.27;;;;;;;14.05;100.00;101757.88;5074372;28;20021;-60
2023/05/23 00:39:40;;;;;;;23.85;17.77;;;;;;;14.02;100.00;101764.88;5074671;28;20033;-57
2023/05/23 00:42:06;;;;;;;23.70;17.92;;;;;;;14.00;100.00;101760.72;5074606;28;20024;-59
2023/05/23 00:44:31;;;;;;;21.92;17.20;;;;;;;14.01;100.00;101770.72;5074090;28;20037;-60
2023/05/23 00:46:57;;;;;;;25.40;17.88;;;;;;;14.01;100.00;101790.19;5074502;28;20032;-60
2023/05/23 00:49:23;;;;;;;25.58;17.65;;;;;;;14.02;100.00;101770.44;5074219;28;20396;-60
2023/05/23 00:51:50;;;;;;;24.92;18.13;;;;;;;14.01;100.00;101770.72;5074285;28;20029;-60
2023/05/23 00:54:30;;;;;;;23.60;17.00;;;;;;;14.04;100.00;101761.78;5074381;28;20056;-60
2023/05/23 00:56:56;;;;;;;24.35;17.42;;;;;;;14.00;100.00;101772.69;5074359;28;20100;-60
2023/05/23 00:59:23;;;;;;;23.73;17.38;;;;;;;13.99;100.00;101781.31;5071217;28;20115;-55
2023/05/23 01:01:49;;;;;;;25.50;17.88;;;;;;;13.95;100.00;101767.22;5069775;28;20387;-59
2023/05/23 01:04:15;;;;;;;24.08;17.70;;;;;;;13.91;100.00;101773.69;5074150;28;20036;-60
2023/05/23 01:06:45;;;;;;;24.45;17.15;;;;;;;13.96;100.00;101776.41;5074247;28;20388;-60
2023/05/23 01:09:11;;;;;;;23.10;17.65;;;;;;;13.97;100.00;101775.28;5070419;28;20108;-60
2023/05/23 01:11:46;;;;;;;24.60;17.67;;;;;;;13.97;100.00;101775.28;5053994;28;20107;-57
2023/05/23 01:14:20;;;;;;;24.50;17.55;;;;;;;13.96;100.00;101768.88;5053895;28;20360;-61
2023/05/23 01:16:56;;;;;;;23.45;16.50;;;;;;;13.97;100.00;101778.88;5053948;28;20025;-60
2023/05/23 01:19:41;;;;;;;25.30;17.13;;;;;;;13.98;100.00;101779.72;5054090;28;20032;-60
2023/05/23 01:22:17;;;;;;;23.65;17.80;;;;;;;13.94;100.00;101768.34;5053853;28;20090;-60
2023/05/23 01:24:56;;;;;;;25.90;18.42;;;;;;;13.88;100.00;101775.97;5054027;28;20067;-58
2023/05/23 01:27:49;;;;;;;25.08;17.95;;;;;;;13.80;100.00;101771.09;5053569;28;20186;-60
2023/05/23 01:30:18;;;;;;;27.92;19.08;;;;;;;13.68;100.00;101776.34;5053587;28;20399;-60
2023/05/23 01:32:45;;;;;;;28.88;20.48;;;;;;;13.66;100.00;101787.75;5053423;28;20021;-60
2023/05/23 01:35:11;;;;;;;27.70;18.92;;;;;;;13.62;100.00;101791.44;5053371;28;20449;-58
2023/05/23 01:37:36;;;;;;;26.02;19.55;;;;;;;13.66;100.00;101790.53;5053672;28;20399;-58
2023/05/23 01:40:02;;;;;;;30.13;19.55;;;;;;;13.65;100.00;101782.50;5053363;28;20481;-60
2023/05/23 01:42:27;;;;;;;29.65;19.27;;;;;;;13.59;100.00;101786.50;5053255;28;20123;-58
2023/05/23 01:44:53;;;;;;;30.50;20.25;;;;;;;13.55;100.00;101791.84;5053317;28;20472;-58
2023/05/23 01:47:20;;;;;;;28.88;20.17;;;;;;;13.48;100.00;101794.16;5053060;28;20029;-58
2023/05/23 01:49:46;;;;;;;27.70;19.40;;;;;;;13.44;100.00;101796.72;5053136;28;20040;-57
2023/05/23 01:52:12;;;;;;;27.50;18.85;;;;;;;13.38;100.00;101795.94;5053077;28;20111;-57
2023/05/23 01:54:42;;;;;;;30.05;18.90;;;;;;;13.41;100.00;101798.16;5053101;28;20033;-58
2023/05/23 01:57:08;;;;;;;30.42;20.23;;;;;;;13.36;100.00;101801.00;5052992;28;20465;-58
2023/05/23 01:59:33;;;;;;;28.98;19.48;;;;;;;13.33;100.00;101804.38;5048592;28;20074;-56
2023/05/23 02:01:58;;;;;;;32.63;19.27;;;;;;;13.34;100.00;101813.53;5049982;28;20505;-58
2023/05/23 02:04:24;;;;;;;28.95;20.60;;;;;;;13.30;100.00;101824.44;5052901;28;20445;-59
2023/05/23 02:06:49;;;;;;;29.33;21.33;;;;;;;13.21;100.00;101823.44;5052856;28;20028;-57
2023/05/23 02:09:15;;;;;;;28.95;19.77;;;;;;;13.21;100.00;101817.91;5052711;28;20029;-60
2023/05/23 02:11:40;;;;;;;28.40;19.77;;;;;;;13.12;100.00;101812.22;5052728;28;20087;-57
2023/05/23 02:14:06;;;;;;;27.40;20.00;;;;;;;13.14;100.00;101811.91;5052718;28;20025;-58
2023/05/23 02:16:32;;;;;;;26.75;19.55;;;;;;;13.18;100.00;101837.94;5052735;28;20385;-57
2023/05/23 02:18:57;;;;;;;28.60;19.83;;;;;;;13.11;100.00;101816.91;5052582;28;20108;-58
2023/05/23 02:21:23;;;;;;;28.08;20.25;;;;;;;13.10;100.00;101826.38;5052651;28;20025;-58
2023/05/23 02:23:48;;;;;;;31.20;20.30;;;;;;;13.16;100.00;101823.53;5052730;28;20029;-57
2023/05/23 02:26:13;;;;;;;31.13;20.83;;;;;;;13.14;100.00;101832.16;5052521;28;20021;-58
2023/05/23 02:28:40;;;;;;;29.02;19.58;;;;;;;13.09;100.00;101824.72;5052319;28;20041;-60
2023/05/23 02:31:05;;;;;;;28.33;19.85;;;;;;;13.07;100.00;101827.00;5052297;28;20025;-61
2023/05/23 02:33:31;;;;;;;28.52;19.77;;;;;;;13.06;100.00;101830.88;5052317;28;20473;-59
2023/05/23 02:35:56;;;;;;;26.15;18.38;;;;;;;13.10;100.00;101820.81;5052347;28;20035;-59
2023/05/23 02:38:21;;;;;;;28.27;18.50;;;;;;;12.99;100.00;101821.28;5052263;28;20033;-59
2023/05/23 02:40:49;;;;;;;25.77;17.75;;;;;;;12.98;100.00;101817.69;5052217;28;20147;-59
2023/05/23 02:43:14;;;;;;;25.20;18.02;;;;;;;12.97;100.00;101815.19;5051769;28;20032;-59
2023/05/23 02:45:39;;;;;;;27.02;18.48;;;;;;;12.97;100.00;101815.19;5051886;28;20033;-59
2023/05/23 02:48:05;;;;;;;27.63;18.33;;;;;;;12.94;100.00;101819.38;5052094;28;20033;-59
2023/05/23 02:50:30;;;;;;;26.48;17.73;;;;;;;12.95;100.00;101815.50;5052187;28;20047;-58
2023/05/23 02:52:55;;;;;;;25.67;18.02;;;;;;;12.97;100.00;101817.94;5051977;28;20496;-59
2023/05/23 02:55:21;;;;;;;25.30;16.88;;;;;;;13.04;100.00;101826.75;5050963;28;20025;-58
2023/05/23 02:57:46;;;;;;;22.67;16.23;;;;;;;13.09;100.00;101830.28;5051059;28;20135;-59
2023/05/23 03:00:12;;;;;;;23.27;16.40;;;;;;;13.01;100.00;101822.63;5050485;28;20044;-56
2023/05/23 03:02:37;;;;;;;22.90;15.98;;;;;;;13.00;100.00;101823.72;5046191;28;20029;-59
2023/05/23 03:05:05;;;;;;;24.48;16.60;;;;;;;12.97;100.00;101824.34;5051811;28;20083;-59
2023/05/23 03:07:32;;;;;;;24.77;15.88;;;;;;;12.95;100.00;101821.84;5051821;28;20021;-59
2023/05/23 03:09:58;;;;;;;23.23;16.60;;;;;;;12.86;100.00;101826.41;5051891;28;20075;-59
2023/05/23 03:12:24;;;;;;;24.17;16.30;;;;;;;12.83;100.00;101829.81;5051767;28;20032;-59
2023/05/23 03:14:49;;;;;;;22.50;15.18;;;;;;;12.86;100.00;101828.38;5051602;28;20116;-58
2023/05/23 03:17:15;;;;;;;23.02;15.73;;;;;;;12.87;100.00;101821.72;5051724;28;20021;-58
2023/05/23 03:19:40;;;;;;;24.08;15.98;;;;;;;12.80;100.00;101831.22;5051233;28;20028;-59
2023/05/23 03:22:05;;;;;;;22.65;15.45;;;;;;;12.82;100.00;101833.72;5051632;28;20049;-59
2023/05/23 03:24:30;;;;;;;24.27;16.55;;;;;;;12.79;100.00;101821.25;5051628;28;20106;-59
2023/05/23 03:26:56;;;;;;;23.77;16.15;;;;;;;12.77;100.00;101829.06;5050539;28;20064;-58
2023/05/23 03:29:21;;;;;;;22.88;15.43;;;;;;;12.79;100.00;101835.13;5047728;28;20040;-57
2023/05/23 03:31:46;;;;;;;22.23;16.10;;;;;;;12.81;100.00;101837.59;5045955;28;20021;-59
2023/05/23 03:34:12;;;;;;;22.25;15.32;;;;;;;12.83;100.00;101843.69;5050595;28;20436;-58
2023/05/23 03:36:38;;;;;;;22.10;15.55;;;;;;;12.89;100.00;101844.47;5050550;28;20040;-58
2023/05/23 03:39:03;;;;;;;22.63;15.60;;;;;;;12.90;100.00;101840.53;5050735;28;20029;-60
2023/05/23 03:41:28;;;;;;;21.27;15.60;;;;;;;12.90;100.00;101830.25;5051314;28;20025;-59
2023/05/23 03:43:54;;;;;;;22.20;16.25;;;;;;;12.98;100.00;101839.06;5050221;28;20036;-59
2023/05/23 03:46:19;;;;;;;23.20;16.08;;;;;;;12.95;100.00;101841.28;5051014;28;20116;-59
2023/05/23 03:48:45;;;;;;;24.88;15.75;;;;;;;12.98;100.00;101850.16;5051218;28;20449;-60
2023/05/23 03:51:12;;;;;;;22.02;16.45;;;;;;;12.90;100.00;101846.94;5051367;28;20032;-59
2023/05/23 03:53:37;;;;;;;23.60;16.10;;;;;;;12.89;100.00;101850.00;5051441;28;20035;-59
2023/05/23 03:56:03;;;;;;;23.15;16.05;;;;;;;12.89;100.00;101847.25;5050835;28;20060;-59
2023/05/23 03:58:28;;;;;;;22.63;15.60;;;;;;;12.91;100.00;101853.31;5051008;28;20036;-60
2023/05/23 04:00:53;;;;;;;23.85;16.23;;;;;;;12.95;100.00;101851.59;5050516;28;20040;-59
2023/05/23 04:03:19;;;;;;;22.52;15.07;;;;;;;12.97;100.00;101851.28;5050818;28;20098;-58
2023/05/23 04:05:44;;;;;;;23.38;16.02;;;;;;;12.99;100.00;101855.41;5050865;28;20048;-59
2023/05/23 04:08:10;;;;;;;23.20;16.58;;;;;;;12.91;100.00;101856.06;5050968;28;20025;-60
2023/05/23 04:10:35;;;;;;;23.90;16.45;;;;;;;12.97;100.00;101857.69;5052669;28;20081;-59
2023/05/23 04:13:00;;;;;;;24.27;16.13;;;;;;;12.95;100.00;101868.25;5054961;28;20032;-59
2023/05/23 04:15:26;;;;;;;23.40;16.38;;;;;;;12.89;100.00;101861.94;5054605;28;20021;-59
2023/05/23 04:17:52;;;;;;;23.75;15.73;;;;;;;12.84;100.00;101866.72;5054349;28;20491;-59
2023/05/23 04:20:18;;;;;;;24.15;16.13;;;;;;;12.88;100.00;101865.03;5054430;28;20086;-59
2023/05/23 04:22:43;;;;;;;25.63;16.42;;;;;;;12.90;100.00;101868.31;5054281;28;20326;-59
2023/05/23 04:25:08;;;;;;;25.33;17.45;;;;;;;12.89;100.00;101866.69;5054781;28;20507;-59
2023/05/23 04:27:34;;;;;;;26.98;17.50;;;;;;;12.91;100.00;101865.25;5052758;28;20449;-54
2023/05/23 04:29:59;;;;;;;24.30;16.80;;;;;;;12.95;100.00;101871.03;5048032;28;20020;-59
2023/05/23 04:32:25;;;;;;;26.42;17.48;;;;;;;12.89;100.00;101869.47;5054226;28;20066;-59
2023/05/23 04:34:51;;;;;;;28.70;17.52;;;;;;;12.83;100.00;101873.41;5054002;28;20028;-60
2023/05/23 04:37:20;;;;;;;27.50;17.58;;;;;;;12.83;100.00;101890.91;5054415;28;20528;-59
2023/05/23 04:39:49;;;;;;;26.38;16.92;;;;;;;12.82;100.00;101896.72;5054236;28;20029;-60
2023/05/23 04:42:14;;;;;;;27.90;17.63;;;;;;;12.82;100.00;101899.50;5053413;28;20036;-59
2023/05/23 04:44:40;;;;;;;26.48;17.35;;;;;;;12.80;100.00;101894.25;5053278;28;20036;-59
2023/05/23 04:47:07;;;;;;;27.40;17.30;;;;;;;12.79;100.00;101906.50;5053968;28;20025;-59
2023/05/23 04:49:33;;;;;;;27.98;17.63;;;;;;;12.84;100.00;101908.38;5054191;28;20044;-60
2023/05/23 04:51:58;;;;;;;27.48;16.67;;;;;;;12.84;100.00;101912.00;5054438;28;20025;-59
2023/05/23 04:54:23;;;;;;;30.20;17.13;;;;;;;12.85;100.00;101905.28;5054235;28;20468;-59
2023/05/23 04:56:48;;;;;;;28.80;17.58;;;;;;;12.79;100.00;101910.09;5054147;28;20496;-60
2023/05/23 04:59:14;;;;;;;28.75;17.65;;;;;;;12.83;100.00;101912.28;5054031;28;20498;-59
2023/05/23 05:01:39;;;;;;;27.13;16.77;;;;;;;12.87;100.00;101911.38;5053188;28;20033;-59
2023/05/23 05:04:05;;;;;;;25.67;16.75;;;;;;;12.89;100.00;101911.94;5053919;28;20810;-59
2023/05/23 05:06:30;;;;;;;27.67;17.23;;;;;;;12.95;100.00;101923.81;5053763;28;20090;-59
2023/05/23 05:08:55;;;;;;;29.05;17.13;;;;;;;12.97;100.00;101917.94;5053944;28;20468;-58
2023/05/23 05:11:21;;;;;;;28.98;16.77;;;;;;;12.94;100.00;101924.94;5053970;28;20025;-59
2023/05/23 05:13:46;;;;;;;27.38;17.25;;;;;;;12.84;100.00;101927.81;5053863;28;20104;-60
2023/05/23 05:16:11;;;;;;;31.05;17.17;;;;;;;12.73;100.00;101929.91;5047025;28;20059;-59
2023/05/23 05:18:37;;;;;;;28.67;18.13;;;;;;;12.74;100.00;101932.38;5025949;28;20025;-59
2023/05/23 05:21:03;;;;;;;29.48;17.48;;;;;;;12.73;100.00;101935.44;5047695;28;20055;-59
2023/05/23 05:23:30;;;;;;;33.45;17.85;;;;;;;12.72;100.00;101933.78;5053093;28;20469;-58
2023/05/23 05:25:56;;;;;;;29.70;17.55;;;;;;;12.62;100.00;101943.03;5051353;28;20049;-59
2023/05/23 05:28:21;;;;;;;32.15;17.80;;;;;;;12.49;100.00;101936.22;5047952;28;20480;-59
2023/05/23 05:30:47;;;;;;;29.80;17.83;;;;;;;12.52;100.00;101943.97;5053661;28;20027;-61
2023/05/23 05:33:13;;;;;;;30.58;18.08;;;;;;;12.48;100.00;101940.97;5035795;28;20052;-60
2023/05/23 05:35:38;;;;;;;31.65;17.50;;;;;;;12.47;100.00;101942.09;5053779;28;20462;-60
2023/05/23 05:38:04;;;;;;;28.38;17.23;;;;;;;12.45;100.00;101949.84;5053690;28;20033;-58
2023/05/23 05:40:33;;;;;;;29.98;17.63;;;;;;;12.35;100.00;101955.50;5053628;28;20033;-59
2023/05/23 05:42:58;;;;;;;29.15;17.27;;;;;;;12.30;100.00;101955.56;5053537;28;20037;-59
2023/05/23 05:45:23;;;;;;;31.40;17.33;;;;;;;12.27;100.00;101962.53;5053589;28;20109;-59
2023/05/23 05:47:49;;;;;;;29.60;17.83;;;;;;;12.29;100.00;101962.22;5053277;28;20469;-59
2023/05/23 05:50:14;;;;;;;29.60;17.15;;;;;;;12.26;100.00;101962.78;5053367;28;20033;-59
2023/05/23 05:52:41;;;;;;;30.08;17.17;;;;;;;12.32;100.00;101975.53;5053540;28;20049;-59
2023/05/23 05:55:09;;;;;;;30.73;16.40;;;;;;;12.27;100.00;101972.78;5053250;28;20427;-58
2023/05/23 05:57:37;;;;;;;29.48;16.80;;;;;;;12.23;100.00;101980.84;5053157;28;20033;-59
2023/05/23 06:00:11;;;;;;;32.05;18.05;;;;;;;12.18;100.00;101983.69;5053296;28;20028;-59
2023/05/23 06:02:37;;;;;;;27.73;16.23;;;;;;;12.14;100.00;101980.63;5053099;28;20039;-59
2023/05/23 06:05:03;;;;;;;29.25;16.92;;;;;;;12.19;100.00;101979.75;5053089;28;20086;-60
2023/05/23 06:07:28;;;;;;;32.83;16.83;;;;;;;12.20;100.00;101978.66;5052963;28;20036;-59
2023/05/23 06:09:54;;;;;;;26.30;15.48;;;;;;;12.21;100.00;101994.19;5052727;28;20536;-58
2023/05/23 06:12:19;;;;;;;28.52;15.82;;;;;;;12.12;100.00;101988.44;5052745;28;20561;-60
2023/05/23 06:14:44;;;;;;;27.45;15.80;;;;;;;12.13;100.00;101990.09;5053021;28;20393;-60
2023/05/23 06:17:10;;;;;;;26.55;15.55;;;;;;;12.09;100.00;101986.22;5035005;28;20029;-60
2023/05/23 06:19:37;;;;;;;24.02;15.00;;;;;;;12.16;100.00;101985.91;5034832;28;20021;-60
2023/05/23 06:22:02;;;;;;;26.58;15.50;;;;;;;12.16;100.00;101997.00;5051676;28;20044;-60
2023/05/23 06:24:28;;;;;;;26.33;15.65;;;;;;;12.11;100.00;101999.81;5050565;28;20029;-59
2023/05/23 06:26:53;;;;;;;26.33;14.75;;;;;;;12.05;100.00;102000.97;5050505;28;20477;-58
2023/05/23 06:29:18;;;;;;;25.85;14.65;;;;;;;12.08;100.00;102000.41;5049598;28;20029;-61
2023/05/23 06:31:43;;;;;;;26.35;14.90;;;;;;;12.02;100.00;101997.66;5048496;28;20021;-59
2023/05/23 06:34:09;;;;;;;27.02;14.73;;;;;;;11.95;100.00;102010.97;5047957;28;20029;-60
2023/05/23 06:36:34;;;;;;;28.25;14.88;;;;;;;11.93;100.00;102017.94;5048657;28;20434;-60
2023/05/23 06:38:59;;;;;;;25.23;15.00;;;;;;;11.85;100.00;102005.50;5050661;28;20025;-58
2023/05/23 06:41:26;;;;;;;26.05;15.50;;;;;;;11.78;100.00;102002.22;5050201;28;20040;-59
2023/05/23 06:43:51;;;;;;;24.67;14.57;;;;;;;11.78;100.00;102010.53;5050862;28;20471;-60
2023/05/23 06:46:17;;;;;;;25.45;14.68;;;;;;;11.76;100.00;102013.56;5052178;28;20171;-59
2023/05/23 06:48:42;;;;;;;23.13;14.45;;;;;;;11.77;100.00;102033.81;5052104;28;20033;-60
2023/05/23 06:51:07;;;;;;;25.40;14.52;;;;;;;11.79;100.00;102023.28;5051992;28;20032;-60
2023/05/23 06:53:33;;;;;;;25.17;14.25;;;;;;;11.78;100.00;102025.22;5051964;28;20021;-59
2023/05/23 06:55:58;;;;;;;25.48;14.10;;;;;;;11.91;100.00;102031.25;5051902;28;20025;-60
2023/05/23 06:58:25;;;;;;;24.75;13.60;;;;;;;11.95;100.00;102037.91;5051978;28;20478;-59
2023/05/23 07:00:51;;;;;;;23.85;14.27;;;;;;;12.00;100.00;102037.88;5052016;28;20104;-60
2023/05/23 07:03:16;;;;;;;23.83;13.73;;;;;;;12.10;100.00;102043.38;5051886;28;20380;-60
2023/05/23 07:05:41;;;;;;;21.95;13.48;;;;;;;12.13;100.00;102050.28;5051956;28;20042;-61
2023/05/23 07:08:09;;;;;;;26.33;14.05;;;;;;;12.13;100.00;102053.91;5051664;28;20429;-60
2023/05/23 07:10:35;;;;;;;22.30;12.70;;;;;;;12.16;98.41;102058.84;5051902;28;20062;-59
2023/05/23 07:13:00;;;;;;;24.23;13.25;;;;;;;12.27;96.55;102059.63;5052047;28;20095;-58
2023/05/23 07:15:25;;;;;;;24.55;13.32;;;;;;;12.49;96.24;102061.13;5051888;28;20024;-61
2023/05/23 07:17:50;;;;;;;25.85;12.43;;;;;;;12.57;93.88;102068.81;5051771;28;20060;-59
2023/05/23 07:20:16;;;;;;;25.50;13.18;;;;;;;12.70;93.60;102056.25;5051994;28;20473;-59
2023/05/23 07:22:41;;;;;;;23.08;12.25;;;;;;;12.85;91.51;102066.38;5051508;28;20055;-60
2023/05/23 07:25:07;;;;;;;21.75;13.05;;;;;;;12.77;89.59;102070.63;5051557;28;20041;-59
2023/05/23 07:27:32;;;;;;;21.52;12.57;;;;;;;12.82;88.72;102066.97;5033356;28;20049;-59
2023/05/23 07:29:57;;;;;;;22.58;11.90;;;;;;;12.93;87.12;102070.47;5051378;28;20032;-61
2023/05/23 07:32:23;;;;;;;23.70;13.02;;;;;;;12.98;86.06;102070.44;5051376;28;20079;-59
2023/05/23 07:34:48;;;;;;;24.25;12.88;;;;;;;13.13;85.37;102071.41;5051387;28;20048;-59
2023/05/23 07:37:13;;;;;;;23.30;12.50;;;;;;;13.20;84.28;102077.44;5051354;28;20337;-59
2023/05/23 07:39:40;;;;;;;22.50;12.23;;;;;;;13.41;81.39;102084.47;5051325;28;20037;-58
2023/05/23 07:42:05;;;;;;;23.67;12.95;;;;;;;13.62;79.82;102089.78;5051283;28;20025;-59
2023/05/23 07:44:31;;;;;;;22.10;12.45;;;;;;;13.69;79.98;102069.97;5051267;28;20021;-60
2023/05/23 07:46:56;;;;;;;23.45;12.80;;;;;;;13.61;79.03;102074.22;5053507;28;20033;-60
2023/05/23 07:49:22;;;;;;;23.23;12.63;;;;;;;13.57;80.76;102075.94;5053468;28;20033;-58
2023/05/23 07:51:47;;;;;;;23.35;12.75;;;;;;;13.41;81.35;102075.31;5053671;28;20037;-60
2023/05/23 07:54:12;;;;;;;21.88;12.73;;;;;;;13.45;81.68;102081.09;5053650;28;20021;-59
2023/05/23 07:56:38;;;;;;;22.90;12.70;;;;;;;13.41;81.75;102078.91;5053527;28;20380;-60
2023/05/23 07:59:04;;;;;;;23.67;13.35;;;;;;;13.23;83.14;102093.53;5053448;28;20346;-58
2023/05/23 08:01:30;;;;;;;25.35;13.25;;;;;;;13.27;82.72;102097.38;5053513;28;20451;-59
2023/05/23 08:03:55;;;;;;;22.45;13.15;;;;;;;13.23;82.88;102099.88;5053412;28;20124;-59
2023/05/23 08:06:21;;;;;;;25.23;12.90;;;;;;;13.23;83.48;102101.84;5053220;28;20029;-59
2023/05/23 08:08:46;;;;;;;24.52;12.38;;;;;;;13.35;83.26;102101.44;5052907;28;20033;-59
2023/05/23 08:11:13;;;;;;;23.38;12.63;;;;;;;13.29;82.81;102092.34;5053246;28;20043;-59
2023/05/23 08:13:39;;;;;;;22.73;13.35;;;;;;;13.17;83.20;102091.94;5051697;28;20036;-59
2023/05/23 08:16:05;;;;;;;22.27;12.75;;;;;;;13.13;84.30;102097.22;5053162;28;20025;-59
2023/05/23 08:18:30;;;;;;;25.40;13.40;;;;;;;13.16;84.24;102102.19;5053087;28;20438;-59
2023/05/23 08:20:55;;;;;;;22.23;12.70;;;;;;;13.28;84.80;102087.91;5053105;28;20025;-60
2023/05/23 08:23:21;;;;;;;28.08;13.02;;;;;;;13.37;84.19;102102.81;5052930;28;20062;-60
2023/05/23 08:25:46;;;;;;;22.65;12.00;;;;;;;13.46;84.11;102102.22;5053164;28;20114;-60
2023/05/23 08:28:11;;;;;;;22.58;11.80;;;;;;;13.41;84.82;102108.66;5052585;28;20489;-60
2023/05/23 08:30:37;;;;;;;22.83;12.10;;;;;;;13.22;85.41;102103.81;5052777;28;20055;-60
2023/05/23 08:33:03;;;;;;;21.70;12.40;;;;;;;13.23;85.87;102104.63;5052764;28;20116;-60
2023/05/23 08:35:33;;;;;;;21.85;12.75;;;;;;;13.26;85.49;102120.72;5052757;28;20465;-60
2023/05/23 08:38:00;;;;;;;22.08;12.75;;;;;;;13.09;86.44;102110.03;5052008;28;20029;-59
2023/05/23 08:40:29;;;;;;;20.88;11.52;;;;;;;12.89;88.01;102113.84;5050505;28;20029;-60
2023/05/23 08:42:54;;;;;;;23.38;11.23;;;;;;;12.72;89.60;102111.47;5051371;28;20131;-58
2023/05/23 08:45:22;;;;;;;19.98;10.60;;;;;;;12.68;90.04;102116.78;5051565;28;20100;-60
2023/05/23 08:47:50;;;;;;;21.70;10.88;;;;;;;12.92;89.13;102110.47;5051426;28;20116;-60
2023/05/23 08:50:16;;;;;;;24.42;11.57;;;;;;;12.97;88.96;102118.78;5052398;28;20044;-60
2023/05/23 08:52:55;;;;;;;21.70;10.70;;;;;;;13.09;87.59;102121.16;5034456;28;20572;-59
2023/05/23 08:55:23;;;;;;;20.58;10.77;;;;;;;13.26;85.99;102126.28;5052487;28;20033;-60
2023/05/23 08:57:51;;;;;;;23.65;11.45;;;;;;;13.27;84.17;102131.53;5050799;28;20029;-60
2023/05/23 09:00:17;;;;;;;22.85;11.10;;;;;;;13.46;83.72;102124.44;5050516;28;20035;-60
2023/05/23 09:02:43;;;;;;;21.20;10.52;;;;;;;13.58;81.43;102130.41;5050349;28;20055;-60
2023/05/23 09:05:09;;;;;;;23.08;10.85;;;;;;;13.55;79.16;102134.63;5050462;28;20086;-60
2023/05/23 09:07:35;;;;;;;22.35;11.30;;;;;;;13.72;79.31;102125.81;5050277;28;20021;-59
2023/05/23 09:10:02;;;;;;;21.85;10.90;;;;;;;14.01;78.39;102133.25;5050949;28;20097;-59
2023/05/23 09:12:28;;;;;;;23.27;11.05;;;;;;;14.12;76.46;102138.69;5049842;28;20029;-60
2023/05/23 09:14:54;;;;;;;21.48;10.30;;;;;;;14.25;76.85;102134.31;5051926;28;20518;-60
2023/05/23 09:17:19;;;;;;;21.35;10.27;;;;;;;14.23;74.21;102128.22;5051589;28;20029;-62
2023/05/23 09:19:46;;;;;;;21.70;10.65;;;;;;;14.43;74.35;102127.09;5051484;28;20043;-59
2023/05/23 09:22:11;;;;;;;21.70;11.20;;;;;;;14.54;73.44;102131.38;5051849;28;20025;-60
2023/05/23 09:24:37;;;;;;;21.38;10.55;;;;;;;14.43;70.29;102147.44;5051979;28;20376;-60
2023/05/23 09:27:05;;;;;;;20.77;10.15;;;;;;;14.20;70.10;102141.59;5033722;28;20139;-60
2023/05/23 09:29:30;;;;;;;23.17;10.48;;;;;;;14.13;70.30;102155.06;5051705;28;20288;-60
2023/05/23 09:32:09;;;;;;;20.98;9.77;;;;;;;14.23;70.32;102142.97;5033460;28;20119;-59
2023/05/23 09:34:34;;;;;;;22.48;10.20;;;;;;;14.20;69.50;102149.16;5051493;28;20047;-60
2023/05/23 09:36:59;;;;;;;21.52;10.40;;;;;;;14.18;69.93;102143.03;5051478;28;20116;-58
2023/05/23 09:39:25;;;;;;;22.52;10.38;;;;;;;14.35;69.18;102142.53;5051451;28;20064;-61
2023/05/23 09:41:50;;;;;;;23.25;10.00;;;;;;;14.30;69.78;102153.72;5051311;28;20029;-61
2023/05/23 09:44:22;;;;;;;19.80;10.23;;;;;;;14.50;69.38;102158.16;5051395;28;20090;-60
2023/05/23 09:46:52;;;;;;;22.98;10.68;;;;;;;14.57;68.62;102138.31;5051298;28;20462;-60
2023/05/23 09:49:17;;;;;;;21.80;10.50;;;;;;;14.57;67.36;102138.31;5051366;28;20032;-60
2023/05/23 09:51:43;;;;;;;20.65;10.27;;;;;;;14.47;66.16;102178.28;5051493;28;20041;-60
2023/05/23 09:54:08;;;;;;;19.80;10.13;;;;;;;14.59;66.29;102142.47;5051516;28;20435;-60
2023/05/23 09:56:42;;;;;;;20.88;10.48;;;;;;;14.62;67.59;102147.41;5051345;28;20028;-60
2023/05/23 09:59:10;;;;;;;20.17;10.48;;;;;;;14.48;68.57;102158.47;5051099;28;20033;-60
2023/05/23 10:01:35;;;;;;;23.27;10.32;;;;;;;14.43;66.49;102152.16;5051655;28;20060;-60
2023/05/23 10:04:03;;;;;;;20.02;10.13;;;;;;;14.38;66.47;102149.44;5051099;28;20060;-61
2023/05/23 10:06:36;;;;;;;22.92;10.20;;;;;;;14.44;66.87;102163.00;5050844;28;20044;-60
2023/05/23 10:09:07;;;;;;;20.67;10.45;;;;;;;14.53;66.08;102157.56;5049892;28;20052;-60
2023/05/23 10:11:32;;;;;;;22.27;10.52;;;;;;;14.82;66.55;102148.25;5051054;28;20095;-60
2023/05/23 10:14:00;;;;;;;19.20;10.30;;;;;;;15.16;65.22;102140.72;5051484;28;20080;-60
2023/05/23 10:16:49;;;;;;;21.65;10.20;;;;;;;15.16;63.71;102135.97;5052425;28;20060;-60
2023/05/23 10:19:31;;;;;;;20.65;10.23;;;;;;;15.42;61.58;102161.44;5051074;28;20051;-59
2023/05/23 10:21:59;;;;;;;21.13;10.15;;;;;;;15.40;60.28;102144.16;5032834;28;20453;-61
2023/05/23 10:24:26;;;;;;;25.38;10.38;;;;;;;15.24;60.84;102160.38;5050916;28;20059;-61
2023/05/23 10:26:52;;;;;;;23.00;10.45;;;;;;;15.13;61.03;102150.53;5050767;28;20055;-60
2023/05/23 10:29:18;;;;;;;20.50;10.02;;;;;;;15.37;61.35;102155.13;5032787;28;20104;-60
2023/05/23 10:31:44;;;;;;;21.95;10.20;;;;;;;15.64;60.53;102148.75;5050607;28;20072;-60
2023/05/23 10:34:19;;;;;;;24.92;10.75;;;;;;;15.85;59.37;102156.75;5050610;28;20149;-61
2023/05/23 10:37:04;;;;;;;19.50;10.30;;;;;;;15.97;58.24;102159.00;5066338;28;20456;-58
2023/05/23 10:39:43;;;;;;;20.15;10.13;;;;;;;16.29;57.13;102155.25;5070525;28;20024;-60
2023/05/23 10:42:41;;;;;;;22.95;10.60;;;;;;;16.41;57.63;102160.28;5070583;28;20056;-60
2023/05/23 10:45:14;;;;;;;21.98;10.30;;;;;;;16.08;57.65;102152.09;5070533;28;20052;-61
2023/05/23 10:47:39;;;;;;;22.98;10.70;;;;;;;15.93;58.03;102141.22;5070219;28;20032;-59
2023/05/23 10:50:05;;;;;;;20.45;10.35;;;;;;;15.79;57.89;102144.00;5069996;28;20070;-59
2023/05/23 10:52:39;;;;;;;19.23;10.43;;;;;;;15.75;57.62;102138.22;5065229;28;20044;-58
2023/05/23 10:55:13;;;;;;;27.88;11.40;;;;;;;16.12;57.67;102155.88;5068376;28;20170;-61
2023/05/23 10:57:40;;;;;;;24.23;10.57;;;;;;;16.19;56.80;102142.34;5070238;28;20036;-62
2023/05/23 11:00:12;;;;;;;24.40;10.80;;;;;;;15.92;55.58;102147.97;5070183;28;20055;-59
2023/05/23 11:02:37;;;;;;;23.35;11.05;;;;;;;16.20;55.24;102138.41;5069850;28;20039;-59